createdAt,value
2018-08-22T00:01:37.658Z,10.07
2018-08-22T00:05:10.917Z,9.90
2018-08-22T00:08:45.036Z,10.30
2018-08-22T00:12:18.250Z,9.93
2018-08-22T00:15:51.497Z,10.77
2018-08-22T00:19:24.744Z,9.87
2018-08-22T00:22:57.980Z,10.03
2018-08-22T00:26:31.215Z,10.97
2018-08-22T00:30:04.511Z,10.43
2018-08-22T00:33:37.740Z,10.67
2018-08-22T00:37:10.972Z,10.63
2018-08-22T00:40:44.216Z,9.23
2018-08-22T00:44:17.454Z,10.40
2018-08-22T00:47:50.688Z,10.90
2018-08-22T00:51:23.956Z,10.20
2018-08-22T00:54:57.176Z,9.87
2018-08-22T00:58:30.420Z,10.00
2018-08-22T01:02:03.652Z,9.57
2018-08-22T01:05:36.895Z,11.80
2018-08-22T01:09:10.147Z,10.40
2018-08-22T01:12:43.375Z,10.83
2018-08-22T01:16:16.607Z,9.37
2018-08-22T01:19:49.836Z,10.77
2018-08-22T01:23:23.092Z,10.33
2018-08-22T01:26:56.309Z,9.13
2018-08-22T01:30:29.560Z,9.63
2018-08-22T01:34:02.812Z,11.17
2018-08-22T01:37:36.052Z,11.13
2018-08-22T01:41:09.300Z,11.10
2018-08-22T01:44:42.648Z,11.20
2018-08-22T01:48:15.882Z,9.67
2018-08-22T01:51:49.136Z,10.30
2018-08-22T01:55:22.363Z,11.47
2018-08-22T01:58:55.682Z,11.80
2018-08-22T02:02:28.865Z,9.47
2018-08-22T02:06:02.106Z,11.37
2018-08-22T02:09:35.339Z,10.47
2018-08-22T02:13:08.572Z,11.40
2018-08-22T02:16:41.810Z,10.20
2018-08-22T02:20:15.039Z,11.07
2018-08-22T02:23:48.269Z,11.03
2018-08-22T02:27:21.521Z,11.27
2018-08-22T02:30:54.761Z,13.20
2018-08-22T02:34:27.993Z,10.90
2018-08-22T02:38:01.228Z,12.53
2018-08-22T02:41:34.460Z,10.90
2018-08-22T02:45:07.764Z,10.80
2018-08-22T02:48:46.549Z,10.40
2018-08-22T02:52:19.782Z,11.50
2018-08-22T02:55:53.029Z,12.07
2018-08-22T02:59:26.510Z,10.20
2018-08-22T03:02:59.764Z,10.93
2018-08-22T03:06:33.000Z,10.60
2018-08-22T03:10:06.274Z,12.17
2018-08-22T03:13:39.506Z,12.60
2018-08-22T03:17:12.763Z,10.87
2018-08-22T03:20:46.088Z,12.13
2018-08-22T03:24:19.341Z,12.73
2018-08-22T03:27:52.656Z,11.60
2018-08-22T03:31:25.886Z,12.50
2018-08-22T03:34:59.124Z,11.70
2018-08-22T03:38:32.368Z,13.23
2018-08-22T03:42:05.639Z,11.70
2018-08-22T03:45:38.879Z,13.20
2018-08-22T03:49:12.120Z,12.00
2018-08-22T03:52:45.373Z,11.93
2018-08-22T03:56:18.646Z,12.00
2018-08-22T03:59:51.894Z,11.33
2018-08-22T04:03:25.145Z,12.07
2018-08-22T04:06:58.382Z,11.50
2018-08-22T04:10:31.623Z,12.83
2018-08-22T04:14:04.864Z,13.40
2018-08-22T04:17:39.880Z,13.80
2018-08-22T04:21:13.120Z,10.90
2018-08-22T04:24:46.373Z,12.27
2018-08-22T04:28:19.612Z,12.53
2018-08-22T04:31:52.865Z,13.40
2018-08-22T04:35:26.116Z,13.63
2018-08-22T04:38:59.356Z,13.17
2018-08-22T04:42:32.699Z,12.93
2018-08-22T04:46:06.009Z,12.63
2018-08-22T04:49:39.315Z,12.00
2018-08-22T04:53:12.573Z,13.90
2018-08-22T04:56:46.077Z,12.37
2018-08-22T05:00:19.357Z,13.07
2018-08-22T05:03:52.633Z,11.80
2018-08-22T05:07:26.866Z,10.80
2018-08-22T05:11:00.547Z,11.90
2018-08-22T05:14:33.831Z,12.50
2018-08-22T05:18:07.225Z,12.50
2018-08-22T05:21:40.486Z,13.53
2018-08-22T05:25:13.717Z,12.43
2018-08-22T05:28:46.957Z,11.60
2018-08-22T05:32:20.189Z,11.63
2018-08-22T05:35:53.433Z,11.00
2018-08-22T05:39:26.652Z,9.53
2018-08-22T05:42:59.896Z,10.63
2018-08-22T05:46:33.115Z,9.27
2018-08-22T05:50:06.381Z,9.40
2018-08-22T05:53:39.643Z,9.33
2018-08-22T05:57:12.832Z,9.00
2018-08-22T06:00:46.073Z,11.40
2018-08-22T06:04:19.317Z,10.30
2018-08-22T06:07:52.614Z,11.17
2018-08-22T06:11:25.855Z,9.87
2018-08-22T06:14:59.196Z,11.10
2018-08-22T06:18:32.639Z,10.50
2018-08-22T06:22:06.073Z,11.13
2018-08-22T06:25:39.307Z,11.90
2018-08-22T06:29:12.528Z,9.77
2018-08-22T06:32:47.064Z,10.87
2018-08-22T06:36:20.365Z,8.03
2018-08-22T06:39:53.646Z,8.63
2018-08-22T06:43:26.895Z,9.63
2018-08-22T06:47:00.126Z,8.67
2018-08-22T06:50:33.343Z,8.50
2018-08-22T06:54:06.632Z,8.00
2018-08-22T06:57:39.883Z,7.23
2018-08-22T07:01:13.110Z,9.40
2018-08-22T07:04:46.321Z,8.03
2018-08-22T07:08:19.557Z,9.57
2018-08-22T07:11:52.772Z,8.27
2018-08-22T07:15:26.001Z,8.77
2018-08-22T07:18:59.216Z,8.90
2018-08-22T07:22:32.433Z,8.90
2018-08-22T07:26:05.698Z,8.67
2018-08-22T07:29:38.900Z,9.03
2018-08-22T07:33:12.172Z,9.30
2018-08-22T07:36:45.394Z,8.83
2018-08-22T07:40:18.604Z,7.30
2018-08-22T07:43:51.828Z,7.23
2018-08-22T07:47:25.048Z,9.83
2018-08-22T07:50:58.265Z,9.10
2018-08-22T07:54:39.689Z,8.13
2018-08-22T07:58:12.915Z,8.13
2018-08-22T08:01:46.157Z,8.10
2018-08-22T08:05:19.356Z,9.27
2018-08-22T08:08:52.565Z,8.20
2018-08-22T08:12:31.812Z,7.80
2018-08-22T08:16:05.029Z,8.53
2018-08-22T08:19:38.267Z,9.97
2018-08-22T08:23:11.492Z,9.10
2018-08-22T08:26:44.692Z,7.73
2018-08-22T08:30:17.927Z,7.73
2018-08-22T08:33:51.228Z,9.43
2018-08-22T08:37:24.495Z,8.87
2018-08-22T08:40:57.722Z,9.23
2018-08-22T08:44:30.931Z,12.00
2018-08-22T08:48:04.160Z,8.67
2018-08-22T08:51:47.468Z,10.77
2018-08-22T08:55:20.703Z,9.37
2018-08-22T08:58:53.928Z,10.17
2018-08-22T09:02:27.160Z,8.43
2018-08-22T09:06:00.388Z,9.37
2018-08-22T09:09:33.620Z,8.97
2018-08-22T09:13:08.480Z,9.13
2018-08-22T09:16:41.697Z,10.00
2018-08-22T09:20:14.917Z,10.63
2018-08-22T09:23:48.125Z,9.77
2018-08-22T09:27:21.367Z,8.60
2018-08-22T09:30:54.593Z,10.23
2018-08-22T09:34:27.811Z,9.07
2018-08-22T09:38:01.016Z,9.77
2018-08-22T09:41:34.228Z,10.00
2018-08-22T09:45:07.450Z,9.87
2018-08-22T09:48:40.664Z,9.47
2018-08-22T09:52:13.878Z,10.57
2018-08-22T09:55:47.099Z,10.30
2018-08-22T09:59:20.336Z,10.57
2018-08-22T10:02:53.564Z,10.83
2018-08-22T10:06:36.080Z,8.80
2018-08-22T10:10:09.232Z,8.07
2018-08-22T10:13:42.484Z,8.87
2018-08-22T10:17:15.739Z,8.93
2018-08-22T10:20:48.940Z,10.17
2018-08-22T10:24:22.146Z,9.40
2018-08-22T10:27:55.365Z,9.03
2018-08-22T10:31:28.575Z,9.53
2018-08-22T10:35:01.817Z,8.50
2018-08-22T10:38:35.097Z,9.20
2018-08-22T10:42:08.271Z,9.67
2018-08-22T10:45:41.480Z,8.67
2018-08-22T10:49:14.712Z,8.80
2018-08-22T10:52:47.930Z,9.53
2018-08-22T10:56:21.134Z,10.27
2018-08-22T10:59:54.361Z,10.43
2018-08-22T11:03:27.684Z,9.70
2018-08-22T11:07:00.926Z,9.37
2018-08-22T11:10:34.141Z,9.47
2018-08-22T11:14:07.535Z,10.07
2018-08-22T11:17:40.740Z,10.13
2018-08-22T11:21:25.175Z,14.07
2018-08-22T11:25:09.728Z,10.00
2018-08-22T11:28:54.089Z,10.30
2018-08-22T11:32:38.785Z,9.87
2018-08-22T11:36:11.017Z,10.17
2018-08-22T11:39:45.600Z,11.17
2018-08-22T11:43:18.824Z,9.90
2018-08-22T11:46:52.133Z,9.60
2018-08-22T11:50:25.271Z,9.37
2018-08-22T11:53:58.513Z,9.70
2018-08-22T11:57:31.765Z,9.10
2018-08-22T12:01:05.181Z,10.23
2018-08-22T12:04:38.404Z,8.70
2018-08-22T12:08:11.620Z,9.00
2018-08-22T12:11:44.852Z,9.90
2018-08-22T12:15:18.856Z,9.97
2018-08-22T12:18:52.093Z,9.47
2018-08-22T12:22:25.317Z,8.97
2018-08-22T12:25:58.538Z,9.63
2018-08-22T12:29:31.748Z,10.03
2018-08-22T12:33:05.027Z,10.03
2018-08-22T12:36:38.256Z,9.07
2018-08-22T12:40:11.468Z,10.17
2018-08-22T12:43:44.689Z,9.83
2018-08-22T12:47:17.900Z,9.90
2018-08-22T12:50:51.133Z,9.60
2018-08-22T12:54:24.364Z,9.03
2018-08-22T12:57:57.611Z,9.63
2018-08-22T13:01:30.841Z,10.00
2018-08-22T13:05:04.057Z,9.30
2018-08-22T13:08:37.296Z,10.13
2018-08-22T13:12:10.526Z,9.87
2018-08-22T13:15:43.742Z,9.00
2018-08-22T13:19:16.993Z,9.80
2018-08-22T13:22:50.204Z,9.47
2018-08-22T13:26:23.432Z,8.30
2018-08-22T13:29:56.648Z,9.17
2018-08-22T13:33:29.879Z,9.00
2018-08-22T13:37:03.101Z,9.03
2018-08-22T13:40:36.312Z,9.17
2018-08-22T13:44:09.749Z,10.17
2018-08-22T13:47:42.975Z,8.90
2018-08-22T13:51:16.202Z,9.80
2018-08-22T13:54:49.411Z,8.23
2018-08-22T13:58:22.723Z,9.20
2018-08-22T14:01:55.972Z,8.13
2018-08-22T14:05:29.220Z,8.80
2018-08-22T14:09:02.455Z,8.83
2018-08-22T14:12:35.678Z,8.60
2018-08-22T14:16:08.937Z,9.70
2018-08-22T14:19:42.148Z,8.80
2018-08-22T14:23:15.360Z,9.20
2018-08-22T14:26:48.593Z,9.10
2018-08-22T14:30:21.806Z,9.73
2018-08-22T14:33:55.032Z,7.93
2018-08-22T14:37:28.248Z,9.37
2018-08-22T14:41:01.460Z,12.07
2018-08-22T14:44:34.702Z,8.73
2018-08-22T14:48:08.015Z,10.00
2018-08-22T14:51:41.238Z,8.77
2018-08-22T14:55:14.494Z,8.60
2018-08-22T14:58:47.805Z,9.90
2018-08-22T15:02:21.112Z,9.73
2018-08-22T15:05:54.327Z,9.73
2018-08-22T15:09:27.539Z,8.87
2018-08-22T15:13:00.823Z,9.93
2018-08-22T15:16:34.010Z,9.23
2018-08-22T15:20:07.331Z,8.97
2018-08-22T15:23:40.561Z,8.80
2018-08-22T15:27:13.778Z,9.23
2018-08-22T15:30:46.993Z,8.87
2018-08-22T15:34:20.233Z,8.40
2018-08-22T15:37:53.480Z,9.20
2018-08-22T15:41:26.686Z,8.23
2018-08-22T15:44:59.935Z,11.70
2018-08-22T15:48:33.185Z,8.23
2018-08-22T15:52:06.405Z,9.67
2018-08-22T15:55:39.627Z,8.23
2018-08-22T15:59:13.300Z,8.50
2018-08-22T16:02:46.516Z,8.30
2018-08-22T16:06:19.728Z,8.57
2018-08-22T16:09:52.956Z,8.90
2018-08-22T16:13:30.615Z,9.43
2018-08-22T16:17:03.841Z,8.07
2018-08-22T16:20:44.952Z,8.10
2018-08-22T16:24:18.291Z,9.17
2018-08-22T16:27:51.797Z,9.17
2018-08-22T16:31:31.024Z,9.13
2018-08-22T16:35:04.257Z,7.70
2018-08-22T16:38:37.477Z,10.83
2018-08-22T16:42:11.062Z,9.20
2018-08-22T16:45:49.786Z,7.87
2018-08-22T16:49:23.046Z,7.97
2018-08-22T16:52:56.250Z,8.97
2018-08-22T16:56:30.728Z,7.27
2018-08-22T17:00:04.276Z,7.40
2018-08-22T17:03:37.512Z,9.30
2018-08-22T17:07:16.120Z,8.13
2018-08-22T17:10:53.572Z,7.87
2018-08-22T17:14:26.811Z,8.33
2018-08-22T17:18:00.024Z,9.30
2018-08-22T17:21:33.256Z,7.90
2018-08-22T17:25:07.000Z,8.77
2018-08-22T17:28:42.173Z,8.83
2018-08-22T17:32:15.381Z,9.37
2018-08-22T17:35:48.615Z,9.00
2018-08-22T17:39:22.040Z,8.10
2018-08-22T17:42:55.992Z,10.33
2018-08-22T17:46:30.640Z,10.73
2018-08-22T17:50:07.737Z,13.33
2018-08-22T17:53:41.004Z,10.97
2018-08-22T17:57:25.765Z,10.03
2018-08-22T18:00:59.164Z,8.90
2018-08-22T18:04:43.840Z,8.60
2018-08-22T18:08:17.089Z,8.63
2018-08-22T18:11:50.316Z,11.57
2018-08-22T18:15:23.548Z,8.70
2018-08-22T18:18:56.769Z,9.67
2018-08-22T18:22:31.977Z,8.53
2018-08-22T18:26:05.548Z,9.23
2018-08-22T18:29:40.489Z,9.53
2018-08-22T18:33:14.017Z,9.00
2018-08-22T18:36:47.297Z,11.33
2018-08-22T18:40:24.450Z,10.07
2018-08-22T18:43:57.690Z,11.87
2018-08-22T18:47:32.279Z,14.20
2018-08-22T18:51:05.547Z,11.30
2018-08-22T18:54:38.826Z,13.03
2018-08-22T18:58:12.064Z,12.80
2018-08-22T19:01:45.289Z,9.40
2018-08-22T19:05:22.489Z,11.37
2018-08-22T19:08:55.736Z,9.93
2018-08-22T19:12:28.957Z,10.37
2018-08-22T19:16:05.577Z,13.03
2018-08-22T19:19:43.256Z,11.93
2018-08-22T19:23:16.689Z,10.70
2018-08-22T19:26:49.900Z,10.60
2018-08-22T19:30:23.955Z,9.83
2018-08-22T19:33:57.197Z,11.47
2018-08-22T19:37:30.437Z,14.07
2018-08-22T19:41:19.668Z,12.43
2018-08-22T19:44:52.896Z,11.13
2018-08-22T19:48:26.140Z,12.13
2018-08-22T19:51:59.374Z,14.00
2018-08-22T19:55:33.339Z,14.47
2018-08-22T19:59:06.656Z,13.13
2018-08-22T20:02:39.907Z,12.00
2018-08-22T20:06:13.160Z,12.07
2018-08-22T20:09:46.416Z,11.57
2018-08-22T20:13:20.549Z,11.37
2018-08-22T20:16:53.810Z,13.17
2018-08-22T20:20:27.050Z,13.33
2018-08-22T20:24:01.243Z,15.77
2018-08-22T20:27:34.596Z,13.77
2018-08-22T20:31:11.945Z,16.00
2018-08-22T20:34:45.179Z,17.30
2018-08-22T20:38:18.416Z,16.00
2018-08-22T20:41:55.898Z,16.83
2018-08-22T20:45:37.440Z,14.10
2018-08-22T20:49:10.757Z,14.40
2018-08-22T20:52:44.044Z,14.73
2018-08-22T20:56:17.323Z,13.60
2018-08-22T20:59:50.650Z,10.37
2018-08-22T21:03:24.354Z,12.23
2018-08-22T21:06:57.812Z,9.70
2018-08-22T21:10:31.091Z,12.50
2018-08-22T21:14:04.337Z,10.80
2018-08-22T21:17:38.032Z,12.33
2018-08-22T21:21:16.631Z,13.33
2018-08-22T21:24:49.907Z,13.90
2018-08-22T21:28:25.720Z,12.97
2018-08-22T21:31:58.948Z,15.57
2018-08-22T21:35:32.191Z,13.53
2018-08-22T21:39:10.464Z,14.33
2018-08-22T21:42:44.148Z,14.77
2018-08-22T21:46:17.366Z,13.80
2018-08-22T21:49:50.601Z,14.33
2018-08-22T21:53:23.809Z,13.13
2018-08-22T21:56:57.023Z,14.00
2018-08-22T22:00:30.425Z,12.60
2018-08-22T22:04:03.662Z,13.63
2018-08-22T22:07:36.909Z,11.80
2018-08-22T22:11:10.120Z,12.83
2018-08-22T22:14:44.024Z,11.20
2018-08-22T22:18:17.254Z,10.30
2018-08-22T22:21:50.476Z,11.17
2018-08-22T22:25:23.732Z,12.27
2018-08-22T22:28:56.968Z,11.23
2018-08-22T22:32:30.615Z,11.53
2018-08-22T22:36:03.897Z,10.70
2018-08-22T22:39:45.473Z,12.23
2018-08-22T22:43:18.739Z,11.97
2018-08-22T22:46:51.980Z,12.80
2018-08-22T22:50:25.225Z,12.97
2018-08-22T22:53:58.447Z,11.97
2018-08-22T22:57:33.096Z,13.23
2018-08-22T23:01:07.005Z,12.93
2018-08-22T23:04:44.893Z,12.10
2018-08-22T23:08:18.140Z,12.60
2018-08-22T23:11:51.390Z,11.40
2018-08-22T23:15:26.248Z,12.33
2018-08-22T23:18:59.473Z,12.13
2018-08-22T23:22:32.691Z,10.80
2018-08-22T23:26:14.887Z,11.40
2018-08-22T23:29:48.160Z,13.03
2018-08-22T23:33:21.435Z,11.30
2018-08-22T23:36:54.671Z,11.33
2018-08-22T23:40:29.195Z,11.70
2018-08-22T23:44:02.443Z,12.23
2018-08-22T23:47:35.675Z,14.13
2018-08-22T23:51:11.347Z,11.10
2018-08-22T23:54:46.203Z,11.43
2018-08-22T23:58:19.439Z,13.10
